sensor_id;sensor_type;location;lat;lon;timestamp;temperature;humidity
54260;DHT22;40172;53.022;7.012;2023-05-07T00:01:26;11.60;99.90
54260;DHT22;40172;53.022;7.012;2023-05-07T00:03:52;11.50;99.90
54260;DHT22;40172;53.022;7.012;2023-05-07T00:06:17;11.50;99.90
54260;DHT22;40172;53.022;7.012;2023-05-07T00:08:43;11.60;99.90
54260;DHT22;40172;53.022;7.012;2023-05-07T00:11:09;11.60;99.90
54260;DHT22;40172;53.022;7.012;2023-05-07T00:13:34;11.50;99.90
54260;DHT22;40172;53.022;7.012;2023-05-07T00:16:04;11.50;99.90
54260;DHT22;40172;53.022;7.012;2023-05-07T00:18:30;11.50;99.90
54260;DHT22;40172;53.022;7.012;2023-05-07T00:20:55;11.50;99.90
54260;DHT22;40172;53.022;7.012;2023-05-07T00:23:22;11.50;99.90
54260;DHT22;40172;53.022;7.012;2023-05-07T00:25:47;11.40;99.90
54260;DHT22;40172;53.022;7.012;2023-05-07T00:28:13;11.50;99.90
54260;DHT22;40172;53.022;7.012;2023-05-07T00:30:38;11.40;99.90
54260;DHT22;40172;53.022;7.012;2023-05-07T00:33:04;11.50;99.90
54260;DHT22;40172;53.022;7.012;2023-05-07T00:35:30;11.40;99.90
54260;DHT22;40172;53.022;7.012;2023-05-07T00:37:55;11.40;99.90
54260;DHT22;40172;53.022;7.012;2023-05-07T00:40:21;11.30;99.90
54260;DHT22;40172;53.022;7.012;2023-05-07T00:42:48;11.40;99.90
54260;DHT22;40172;53.022;7.012;2023-05-07T00:45:14;11.40;99.90
54260;DHT22;40172;53.022;7.012;2023-05-07T00:47:41;11.40;99.90
54260;DHT22;40172;53.022;7.012;2023-05-07T00:50:07;11.30;99.90
54260;DHT22;40172;53.022;7.012;2023-05-07T00:52:34;11.30;99.90
54260;DHT22;40172;53.022;7.012;2023-05-07T00:55:05;11.30;99.90
54260;DHT22;40172;53.022;7.012;2023-05-07T00:57:35;11.30;99.90
54260;DHT22;40172;53.022;7.012;2023-05-07T01:00:03;11.30;99.90
54260;DHT22;40172;53.022;7.012;2023-05-07T01:02:28;11.30;99.90
54260;DHT22;40172;53.022;7.012;2023-05-07T01:04:55;11.20;99.90
54260;DHT22;40172;53.022;7.012;2023-05-07T01:07:21;11.20;99.90
54260;DHT22;40172;53.022;7.012;2023-05-07T01:09:47;11.20;99.90
54260;DHT22;40172;53.022;7.012;2023-05-07T01:12:13;11.20;99.90
54260;DHT22;40172;53.022;7.012;2023-05-07T01:14:39;11.20;99.90
54260;DHT22;40172;53.022;7.012;2023-05-07T01:17:04;11.20;99.90
54260;DHT22;40172;53.022;7.012;2023-05-07T01:19:30;11.10;99.90
54260;DHT22;40172;53.022;7.012;2023-05-07T01:22:01;11.10;99.90
54260;DHT22;40172;53.022;7.012;2023-05-07T01:24:29;11.10;99.90
54260;DHT22;40172;53.022;7.012;2023-05-07T01:26:55;11.10;99.90
54260;DHT22;40172;53.022;7.012;2023-05-07T01:29:20;11.10;99.90
54260;DHT22;40172;53.022;7.012;2023-05-07T01:31:46;11.10;99.90
54260;DHT22;40172;53.022;7.012;2023-05-07T01:34:13;11.10;99.90
54260;DHT22;40172;53.022;7.012;2023-05-07T01:36:43;11.10;99.90
54260;DHT22;40172;53.022;7.012;2023-05-07T01:39:10;11.10;99.90
54260;DHT22;40172;53.022;7.012;2023-05-07T01:41:36;11.10;99.90
54260;DHT22;40172;53.022;7.012;2023-05-07T01:44:03;11.00;99.90
54260;DHT22;40172;53.022;7.012;2023-05-07T01:46:31;11.00;99.90
54260;DHT22;40172;53.022;7.012;2023-05-07T01:48:58;11.00;99.90
54260;DHT22;40172;53.022;7.012;2023-05-07T01:51:23;10.80;99.90
54260;DHT22;40172;53.022;7.012;2023-05-07T01:53:49;11.00;99.90
54260;DHT22;40172;53.022;7.012;2023-05-07T01:56:17;11.00;99.90
54260;DHT22;40172;53.022;7.012;2023-05-07T01:58:44;11.80;99.90
54260;DHT22;40172;53.022;7.012;2023-05-07T02:01:12;11.00;99.90
54260;DHT22;40172;53.022;7.012;2023-05-07T02:03:38;10.90;99.90
54260;DHT22;40172;53.022;7.012;2023-05-07T02:06:03;10.90;99.90
54260;DHT22;40172;53.022;7.012;2023-05-07T02:08:29;10.90;99.90
54260;DHT22;40172;53.022;7.012;2023-05-07T02:10:55;10.90;99.90
54260;DHT22;40172;53.022;7.012;2023-05-07T02:13:20;10.80;99.90
54260;DHT22;40172;53.022;7.012;2023-05-07T02:15:47;10.90;99.90
54260;DHT22;40172;53.022;7.012;2023-05-07T02:18:16;10.70;99.90
54260;DHT22;40172;53.022;7.012;2023-05-07T02:20:42;10.80;99.90
54260;DHT22;40172;53.022;7.012;2023-05-07T02:23:16;10.80;99.90
54260;DHT22;40172;53.022;7.012;2023-05-07T02:25:41;10.80;99.90
54260;DHT22;40172;53.022;7.012;2023-05-07T02:28:07;10.80;99.90
54260;DHT22;40172;53.022;7.012;2023-05-07T02:30:32;10.60;99.90
54260;DHT22;40172;53.022;7.012;2023-05-07T02:32:58;10.80;99.90
54260;DHT22;40172;53.022;7.012;2023-05-07T02:35:25;10.80;99.90
54260;DHT22;40172;53.022;7.012;2023-05-07T02:37:51;10.70;99.90
54260;DHT22;40172;53.022;7.012;2023-05-07T02:40:16;10.70;99.90
54260;DHT22;40172;53.022;7.012;2023-05-07T02:42:42;10.80;99.90
54260;DHT22;40172;53.022;7.012;2023-05-07T02:45:08;10.70;99.90
54260;DHT22;40172;53.022;7.012;2023-05-07T02:47:34;10.70;99.90
54260;DHT22;40172;53.022;7.012;2023-05-07T02:49:59;10.70;99.90
54260;DHT22;40172;53.022;7.012;2023-05-07T02:52:25;10.70;99.90
54260;DHT22;40172;53.022;7.012;2023-05-07T02:54:51;10.70;99.90
54260;DHT22;40172;53.022;7.012;2023-05-07T02:57:16;10.70;99.90
54260;DHT22;40172;53.022;7.012;2023-05-07T02:59:42;10.70;99.90
54260;DHT22;40172;53.022;7.012;2023-05-07T03:02:08;10.60;99.90
54260;DHT22;40172;53.022;7.012;2023-05-07T03:04:33;10.60;99.90
54260;DHT22;40172;53.022;7.012;2023-05-07T03:06:59;10.60;99.90
54260;DHT22;40172;53.022;7.012;2023-05-07T03:09:24;10.60;99.90
54260;DHT22;40172;53.022;7.012;2023-05-07T03:11:50;10.60;99.90
54260;DHT22;40172;53.022;7.012;2023-05-07T03:14:16;10.60;99.90
54260;DHT22;40172;53.022;7.012;2023-05-07T03:16:42;10.60;99.90
54260;DHT22;40172;53.022;7.012;2023-05-07T03:19:07;10.50;99.90
54260;DHT22;40172;53.022;7.012;2023-05-07T03:21:33;10.50;99.90
54260;DHT22;40172;53.022;7.012;2023-05-07T03:23:59;10.50;99.90
54260;DHT22;40172;53.022;7.012;2023-05-07T03:26:25;10.50;99.90
54260;DHT22;40172;53.022;7.012;2023-05-07T03:28:51;10.50;99.90
54260;DHT22;40172;53.022;7.012;2023-05-07T03:31:17;10.50;99.90
54260;DHT22;40172;53.022;7.012;2023-05-07T03:33:54;10.50;99.90
54260;DHT22;40172;53.022;7.012;2023-05-07T03:36:21;10.50;99.90
54260;DHT22;40172;53.022;7.012;2023-05-07T03:38:47;10.40;99.90
54260;DHT22;40172;53.022;7.012;2023-05-07T03:41:13;10.40;99.90
54260;DHT22;40172;53.022;7.012;2023-05-07T03:43:38;10.40;99.90
54260;DHT22;40172;53.022;7.012;2023-05-07T03:46:04;10.40;99.90
54260;DHT22;40172;53.022;7.012;2023-05-07T03:48:30;11.10;99.90
54260;DHT22;40172;53.022;7.012;2023-05-07T03:50:57;10.40;99.90
54260;DHT22;40172;53.022;7.012;2023-05-07T03:53:22;10.30;99.90
54260;DHT22;40172;53.022;7.012;2023-05-07T03:55:48;10.30;99.90
54260;DHT22;40172;53.022;7.012;2023-05-07T03:58:14;10.30;99.90
54260;DHT22;40172;53.022;7.012;2023-05-07T04:00:39;10.30;99.90
54260;DHT22;40172;53.022;7.012;2023-05-07T04:03:06;10.30;99.90
54260;DHT22;40172;53.022;7.012;2023-05-07T04:05:31;10.30;99.90
54260;DHT22;40172;53.022;7.012;2023-05-07T04:07:58;10.40;99.90
54260;DHT22;40172;53.022;7.012;2023-05-07T04:10:23;10.30;99.90
54260;DHT22;40172;53.022;7.012;2023-05-07T04:12:49;10.30;99.90
54260;DHT22;40172;53.022;7.012;2023-05-07T04:15:15;10.30;99.90
54260;DHT22;40172;53.022;7.012;2023-05-07T04:17:40;10.30;99.90
54260;DHT22;40172;53.022;7.012;2023-05-07T04:20:09;10.30;99.90
54260;DHT22;40172;53.022;7.012;2023-05-07T04:22:36;10.30;99.90
54260;DHT22;40172;53.022;7.012;2023-05-07T04:25:02;10.30;99.90
54260;DHT22;40172;53.022;7.012;2023-05-07T04:27:28;10.20;99.90
54260;DHT22;40172;53.022;7.012;2023-05-07T04:29:53;10.30;99.90
54260;DHT22;40172;53.022;7.012;2023-05-07T04:32:24;10.20;99.90
54260;DHT22;40172;53.022;7.012;2023-05-07T04:34:50;10.30;99.90
54260;DHT22;40172;53.022;7.012;2023-05-07T04:37:16;10.30;99.90
54260;DHT22;40172;53.022;7.012;2023-05-07T04:39:42;10.20;99.90
54260;DHT22;40172;53.022;7.012;2023-05-07T04:42:07;10.20;99.90
54260;DHT22;40172;53.022;7.012;2023-05-07T04:44:34;10.30;99.90
54260;DHT22;40172;53.022;7.012;2023-05-07T04:47:00;10.30;99.90
54260;DHT22;40172;53.022;7.012;2023-05-07T04:49:26;10.30;99.90
54260;DHT22;40172;53.022;7.012;2023-05-07T04:51:52;10.30;99.90
54260;DHT22;40172;53.022;7.012;2023-05-07T04:54:17;10.20;99.90
54260;DHT22;40172;53.022;7.012;2023-05-07T04:56:43;10.30;99.90
54260;DHT22;40172;53.022;7.012;2023-05-07T04:59:08;10.30;99.90
54260;DHT22;40172;53.022;7.012;2023-05-07T05:01:34;10.40;99.90
54260;DHT22;40172;53.022;7.012;2023-05-07T05:04:00;10.30;99.90
54260;DHT22;40172;53.022;7.012;2023-05-07T05:06:25;10.40;99.90
54260;DHT22;40172;53.022;7.012;2023-05-07T05:08:51;10.40;99.90
54260;DHT22;40172;53.022;7.012;2023-05-07T05:11:17;10.40;99.90
54260;DHT22;40172;53.022;7.012;2023-05-07T05:13:42;10.40;99.90
54260;DHT22;40172;53.022;7.012;2023-05-07T05:16:08;10.40;99.90
54260;DHT22;40172;53.022;7.012;2023-05-07T05:18:34;10.50;99.90
54260;DHT22;40172;53.022;7.012;2023-05-07T05:20:59;10.60;99.90
54260;DHT22;40172;53.022;7.012;2023-05-07T05:23:25;10.50;99.90
54260;DHT22;40172;53.022;7.012;2023-05-07T05:25:55;10.60;99.90
54260;DHT22;40172;53.022;7.012;2023-05-07T05:28:21;10.60;99.90
54260;DHT22;40172;53.022;7.012;2023-05-07T05:30:47;10.60;99.90
54260;DHT22;40172;53.022;7.012;2023-05-07T05:33:13;10.70;99.90
54260;DHT22;40172;53.022;7.012;2023-05-07T05:35:38;10.70;99.90
54260;DHT22;40172;53.022;7.012;2023-05-07T05:38:04;10.60;99.90
54260;DHT22;40172;53.022;7.012;2023-05-07T05:40:29;10.70;99.90
54260;DHT22;40172;53.022;7.012;2023-05-07T05:42:55;10.80;99.90
54260;DHT22;40172;53.022;7.012;2023-05-07T05:45:21;10.80;99.90
54260;DHT22;40172;53.022;7.012;2023-05-07T05:47:47;10.80;99.90
54260;DHT22;40172;53.022;7.012;2023-05-07T05:50:12;10.80;99.90
54260;DHT22;40172;53.022;7.012;2023-05-07T05:52:38;10.80;99.90
54260;DHT22;40172;53.022;7.012;2023-05-07T05:55:04;10.70;99.90
54260;DHT22;40172;53.022;7.012;2023-05-07T05:57:30;10.80;99.90
54260;DHT22;40172;53.022;7.012;2023-05-07T05:59:55;10.80;99.90
54260;DHT22;40172;53.022;7.012;2023-05-07T06:02:21;10.80;99.90
54260;DHT22;40172;53.022;7.012;2023-05-07T06:04:47;10.80;99.90
54260;DHT22;40172;53.022;7.012;2023-05-07T06:07:12;10.90;99.90
54260;DHT22;40172;53.022;7.012;2023-05-07T06:09:38;10.90;99.90
54260;DHT22;40172;53.022;7.012;2023-05-07T06:12:03;10.90;99.90
54260;DHT22;40172;53.022;7.012;2023-05-07T06:14:29;11.00;99.90
54260;DHT22;40172;53.022;7.012;2023-05-07T06:16:55;11.00;99.90
54260;DHT22;40172;53.022;7.012;2023-05-07T06:19:20;11.00;99.90
54260;DHT22;40172;53.022;7.012;2023-05-07T06:21:49;11.00;99.90
54260;DHT22;40172;53.022;7.012;2023-05-07T06:24:15;11.10;99.90
54260;DHT22;40172;53.022;7.012;2023-05-07T06:26:40;11.10;99.90
54260;DHT22;40172;53.022;7.012;2023-05-07T06:29:06;11.20;99.90
54260;DHT22;40172;53.022;7.012;2023-05-07T06:31:32;11.30;99.90
54260;DHT22;40172;53.022;7.012;2023-05-07T06:33:57;11.30;99.90
54260;DHT22;40172;53.022;7.012;2023-05-07T06:36:24;11.40;99.90
54260;DHT22;40172;53.022;7.012;2023-05-07T06:38:50;11.40;99.90
54260;DHT22;40172;53.022;7.012;2023-05-07T06:41:15;11.50;99.90
54260;DHT22;40172;53.022;7.012;2023-05-07T06:43:41;11.50;99.90
54260;DHT22;40172;53.022;7.012;2023-05-07T06:46:06;11.60;99.90
54260;DHT22;40172;53.022;7.012;2023-05-07T06:48:32;11.60;99.90
54260;DHT22;40172;53.022;7.012;2023-05-07T06:50:58;11.60;99.90
54260;DHT22;40172;53.022;7.012;2023-05-07T06:53:24;11.70;99.90
54260;DHT22;40172;53.022;7.012;2023-05-07T06:55:50;11.70;99.90
54260;DHT22;40172;53.022;7.012;2023-05-07T06:58:15;11.50;99.90
54260;DHT22;40172;53.022;7.012;2023-05-07T07:00:41;11.60;99.90
54260;DHT22;40172;53.022;7.012;2023-05-07T07:03:07;11.60;99.90
54260;DHT22;40172;53.022;7.012;2023-05-07T07:05:32;11.60;99.90
54260;DHT22;40172;53.022;7.012;2023-05-07T07:07:58;11.60;99.90
54260;DHT22;40172;53.022;7.012;2023-05-07T07:10:24;11.60;99.90
54260;DHT22;40172;53.022;7.012;2023-05-07T07:12:49;11.70;99.90
54260;DHT22;40172;53.022;7.012;2023-05-07T07:15:16;11.70;99.90
54260;DHT22;40172;53.022;7.012;2023-05-07T07:17:41;11.60;99.90
54260;DHT22;40172;53.022;7.012;2023-05-07T07:20:07;11.60;99.90
54260;DHT22;40172;53.022;7.012;2023-05-07T07:22:33;11.70;99.90
54260;DHT22;40172;53.022;7.012;2023-05-07T07:24:59;11.70;99.90
54260;DHT22;40172;53.022;7.012;2023-05-07T07:27:25;11.80;99.90
54260;DHT22;40172;53.022;7.012;2023-05-07T07:29:50;11.90;99.90
54260;DHT22;40172;53.022;7.012;2023-05-07T07:32:16;12.00;99.90
54260;DHT22;40172;53.022;7.012;2023-05-07T07:34:42;12.10;99.90
54260;DHT22;40172;53.022;7.012;2023-05-07T07:37:07;12.20;99.90
54260;DHT22;40172;53.022;7.012;2023-05-07T07:39:33;12.20;99.90
54260;DHT22;40172;53.022;7.012;2023-05-07T07:41:59;12.30;99.90
54260;DHT22;40172;53.022;7.012;2023-05-07T07:44:25;12.30;99.90
54260;DHT22;40172;53.022;7.012;2023-05-07T07:46:51;12.30;99.90
54260;DHT22;40172;53.022;7.012;2023-05-07T07:49:17;12.30;99.90
54260;DHT22;40172;53.022;7.012;2023-05-07T07:51:43;12.50;99.90
54260;DHT22;40172;53.022;7.012;2023-05-07T07:54:09;12.50;99.90
54260;DHT22;40172;53.022;7.012;2023-05-07T07:56:35;12.80;99.90
54260;DHT22;40172;53.022;7.012;2023-05-07T07:59:00;12.60;99.90
54260;DHT22;40172;53.022;7.012;2023-05-07T08:01:26;12.80;99.90
54260;DHT22;40172;53.022;7.012;2023-05-07T08:03:52;13.10;99.90
54260;DHT22;40172;53.022;7.012;2023-05-07T08:06:18;13.10;99.90
54260;DHT22;40172;53.022;7.012;2023-05-07T08:08:44;13.50;99.90
54260;DHT22;40172;53.022;7.012;2023-05-07T08:11:10;13.60;99.90
54260;DHT22;40172;53.022;7.012;2023-05-07T08:13:36;13.60;99.90
54260;DHT22;40172;53.022;7.012;2023-05-07T08:16:03;13.90;99.90
54260;DHT22;40172;53.022;7.012;2023-05-07T08:18:29;14.10;99.90
54260;DHT22;40172;53.022;7.012;2023-05-07T08:20:58;14.10;99.90
54260;DHT22;40172;53.022;7.012;2023-05-07T08:23:23;14.20;99.90
54260;DHT22;40172;53.022;7.012;2023-05-07T08:25:49;14.10;99.90
54260;DHT22;40172;53.022;7.012;2023-05-07T08:28:16;14.10;99.90
54260;DHT22;40172;53.022;7.012;2023-05-07T08:30:42;14.10;99.90
54260;DHT22;40172;53.022;7.012;2023-05-07T08:33:09;14.00;99.90
54260;DHT22;40172;53.022;7.012;2023-05-07T08:35:35;14.10;99.90
54260;DHT22;40172;53.022;7.012;2023-05-07T08:38:00;14.10;99.90
54260;DHT22;40172;53.022;7.012;2023-05-07T08:40:26;14.30;99.90
54260;DHT22;40172;53.022;7.012;2023-05-07T08:42:56;14.40;99.90
54260;DHT22;40172;53.022;7.012;2023-05-07T08:45:23;14.50;99.90
54260;DHT22;40172;53.022;7.012;2023-05-07T08:47:52;14.50;99.90
54260;DHT22;40172;53.022;7.012;2023-05-07T08:50:20;14.60;99.90
54260;DHT22;40172;53.022;7.012;2023-05-07T08:52:47;14.50;99.90
54260;DHT22;40172;53.022;7.012;2023-05-07T08:55:13;14.50;99.90
54260;DHT22;40172;53.022;7.012;2023-05-07T08:57:39;14.50;99.90
54260;DHT22;40172;53.022;7.012;2023-05-07T09:00:08;14.60;99.90
54260;DHT22;40172;53.022;7.012;2023-05-07T09:02:35;14.70;99.90
54260;DHT22;40172;53.022;7.012;2023-05-07T09:05:02;14.80;99.90
54260;DHT22;40172;53.022;7.012;2023-05-07T09:07:28;14.90;99.90
54260;DHT22;40172;53.022;7.012;2023-05-07T09:09:53;14.90;99.90
54260;DHT22;40172;53.022;7.012;2023-05-07T09:12:23;14.90;99.90
54260;DHT22;40172;53.022;7.012;2023-05-07T09:14:49;15.00;99.90
54260;DHT22;40172;53.022;7.012;2023-05-07T09:17:18;15.00;99.90
54260;DHT22;40172;53.022;7.012;2023-05-07T09:19:44;15.10;99.90
54260;DHT22;40172;53.022;7.012;2023-05-07T09:22:13;15.30;99.90
54260;DHT22;40172;53.022;7.012;2023-05-07T09:24:39;15.40;99.90
54260;DHT22;40172;53.022;7.012;2023-05-07T09:27:05;15.40;99.90
54260;DHT22;40172;53.022;7.012;2023-05-07T09:29:31;15.40;99.90
54260;DHT22;40172;53.022;7.012;2023-05-07T09:32:08;15.40;99.90
54260;DHT22;40172;53.022;7.012;2023-05-07T09:34:35;15.40;99.90
54260;DHT22;40172;53.022;7.012;2023-05-07T09:37:04;15.40;99.90
54260;DHT22;40172;53.022;7.012;2023-05-07T09:39:44;15.60;99.90
54260;DHT22;40172;53.022;7.012;2023-05-07T09:42:09;15.80;99.90
54260;DHT22;40172;53.022;7.012;2023-05-07T09:44:37;16.00;99.90
54260;DHT22;40172;53.022;7.012;2023-05-07T09:47:05;16.10;99.90
54260;DHT22;40172;53.022;7.012;2023-05-07T09:49:34;16.20;99.90
54260;DHT22;40172;53.022;7.012;2023-05-07T09:52:01;16.50;99.90
54260;DHT22;40172;53.022;7.012;2023-05-07T09:54:27;16.50;99.90
54260;DHT22;40172;53.022;7.012;2023-05-07T09:56:56;16.50;99.90
54260;DHT22;40172;53.022;7.012;2023-05-07T09:59:22;16.60;99.90
54260;DHT22;40172;53.022;7.012;2023-05-07T10:01:49;16.50;99.90
54260;DHT22;40172;53.022;7.012;2023-05-07T10:04:16;16.50;99.90
54260;DHT22;40172;53.022;7.012;2023-05-07T10:06:43;16.50;99.90
54260;DHT22;40172;53.022;7.012;2023-05-07T10:09:09;16.60;99.90
54260;DHT22;40172;53.022;7.012;2023-05-07T10:11:37;16.60;99.90
54260;DHT22;40172;53.022;7.012;2023-05-07T10:14:03;16.60;99.90
54260;DHT22;40172;53.022;7.012;2023-05-07T10:16:32;16.70;99.90
54260;DHT22;40172;53.022;7.012;2023-05-07T10:19:02;16.90;99.90
54260;DHT22;40172;53.022;7.012;2023-05-07T10:21:29;17.10;99.90
54260;DHT22;40172;53.022;7.012;2023-05-07T10:24:03;17.20;99.90
54260;DHT22;40172;53.022;7.012;2023-05-07T10:26:33;17.60;99.90
54260;DHT22;40172;53.022;7.012;2023-05-07T10:29:07;17.70;99.90
54260;DHT22;40172;53.022;7.012;2023-05-07T10:31:54;17.70;99.90
54260;DHT22;40172;53.022;7.012;2023-05-07T10:34:24;17.60;99.90
54260;DHT22;40172;53.022;7.012;2023-05-07T10:36:52;17.40;99.90
54260;DHT22;40172;53.022;7.012;2023-05-07T10:39:20;17.20;99.90
54260;DHT22;40172;53.022;7.012;2023-05-07T10:41:46;17.30;99.90
54260;DHT22;40172;53.022;7.012;2023-05-07T10:44:27;17.30;99.90
54260;DHT22;40172;53.022;7.012;2023-05-07T10:47:09;17.40;99.90
54260;DHT22;40172;53.022;7.012;2023-05-07T10:52:31;17.50;99.90
54260;DHT22;40172;53.022;7.012;2023-05-07T10:57:42;17.60;99.90
54260;DHT22;40172;53.022;7.012;2023-05-07T11:03:07;17.80;99.90
54260;DHT22;40172;53.022;7.012;2023-05-07T11:05:33;17.70;99.90
54260;DHT22;40172;53.022;7.012;2023-05-07T11:08:03;17.80;99.90
54260;DHT22;40172;53.022;7.012;2023-05-07T11:13:13;18.20;99.90
54260;DHT22;40172;53.022;7.012;2023-05-07T11:15:42;18.20;99.90
54260;DHT22;40172;53.022;7.012;2023-05-07T11:18:08;18.40;99.90
54260;DHT22;40172;53.022;7.012;2023-05-07T11:26:07;18.20;99.90
54260;DHT22;40172;53.022;7.012;2023-05-07T11:28:38;18.10;99.90
54260;DHT22;40172;53.022;7.012;2023-05-07T11:31:04;18.10;99.90
54260;DHT22;40172;53.022;7.012;2023-05-07T11:33:33;18.20;99.90
54260;DHT22;40172;53.022;7.012;2023-05-07T11:36:03;17.90;99.90
54260;DHT22;40172;53.022;7.012;2023-05-07T11:38:36;17.90;99.90
54260;DHT22;40172;53.022;7.012;2023-05-07T11:41:02;17.80;99.90
54260;DHT22;40172;53.022;7.012;2023-05-07T11:43:33;17.80;99.90
54260;DHT22;40172;53.022;7.012;2023-05-07T11:46:11;17.90;99.90
54260;DHT22;40172;53.022;7.012;2023-05-07T11:48:38;18.00;99.90
54260;DHT22;40172;53.022;7.012;2023-05-07T11:51:05;18.10;99.90
54260;DHT22;40172;53.022;7.012;2023-05-07T11:53:39;18.30;99.90
54260;DHT22;40172;53.022;7.012;2023-05-07T11:56:07;18.20;99.90
54260;DHT22;40172;53.022;7.012;2023-05-07T11:58:32;18.20;99.90
54260;DHT22;40172;53.022;7.012;2023-05-07T12:00:58;18.10;99.90
54260;DHT22;40172;53.022;7.012;2023-05-07T12:03:24;18.10;99.90
54260;DHT22;40172;53.022;7.012;2023-05-07T12:05:49;18.20;99.90
54260;DHT22;40172;53.022;7.012;2023-05-07T12:08:15;18.10;99.90
54260;DHT22;40172;53.022;7.012;2023-05-07T12:10:42;18.10;99.90
54260;DHT22;40172;53.022;7.012;2023-05-07T12:13:24;18.00;99.90
54260;DHT22;40172;53.022;7.012;2023-05-07T12:15:54;18.00;99.90
54260;DHT22;40172;53.022;7.012;2023-05-07T12:18:22;18.00;99.90
54260;DHT22;40172;53.022;7.012;2023-05-07T12:20:48;18.10;99.90
54260;DHT22;40172;53.022;7.012;2023-05-07T12:23:14;18.20;99.90
54260;DHT22;40172;53.022;7.012;2023-05-07T12:25:41;18.40;99.90
54260;DHT22;40172;53.022;7.012;2023-05-07T12:28:16;18.50;99.90
54260;DHT22;40172;53.022;7.012;2023-05-07T12:30:49;18.60;99.90
54260;DHT22;40172;53.022;7.012;2023-05-07T12:33:23;18.70;99.90
54260;DHT22;40172;53.022;7.012;2023-05-07T12:35:49;18.80;99.90
54260;DHT22;40172;53.022;7.012;2023-05-07T12:38:16;18.90;99.90
54260;DHT22;40172;53.022;7.012;2023-05-07T12:40:47;19.00;99.90
54260;DHT22;40172;53.022;7.012;2023-05-07T12:43:20;19.10;99.90
54260;DHT22;40172;53.022;7.012;2023-05-07T12:45:50;19.20;99.90
54260;DHT22;40172;53.022;7.012;2023-05-07T12:48:17;19.20;99.90
54260;DHT22;40172;53.022;7.012;2023-05-07T12:50:43;19.20;99.90
54260;DHT22;40172;53.022;7.012;2023-05-07T12:53:11;19.40;99.90
54260;DHT22;40172;53.022;7.012;2023-05-07T12:55:45;19.50;99.90
54260;DHT22;40172;53.022;7.012;2023-05-07T12:58:24;19.50;99.90
54260;DHT22;40172;53.022;7.012;2023-05-07T13:00:51;19.40;99.90
54260;DHT22;40172;53.022;7.012;2023-05-07T13:03:27;19.40;99.90
54260;DHT22;40172;53.022;7.012;2023-05-07T13:05:54;19.20;99.90
54260;DHT22;40172;53.022;7.012;2023-05-07T13:08:40;19.10;99.90
54260;DHT22;40172;53.022;7.012;2023-05-07T13:11:09;19.10;99.90
54260;DHT22;40172;53.022;7.012;2023-05-07T13:13:37;19.00;99.90
54260;DHT22;40172;53.022;7.012;2023-05-07T13:16:04;18.90;99.90
54260;DHT22;40172;53.022;7.012;2023-05-07T13:18:31;18.80;99.90
54260;DHT22;40172;53.022;7.012;2023-05-07T13:20:57;18.80;99.90
54260;DHT22;40172;53.022;7.012;2023-05-07T13:23:24;18.80;99.90
54260;DHT22;40172;53.022;7.012;2023-05-07T13:25:50;18.80;99.90
54260;DHT22;40172;53.022;7.012;2023-05-07T13:28:16;18.80;99.90
54260;DHT22;40172;53.022;7.012;2023-05-07T13:30:42;18.80;99.90
54260;DHT22;40172;53.022;7.012;2023-05-07T13:33:08;18.80;99.90
54260;DHT22;40172;53.022;7.012;2023-05-07T13:35:34;18.90;99.90
54260;DHT22;40172;53.022;7.012;2023-05-07T13:38:00;19.00;99.90
54260;DHT22;40172;53.022;7.012;2023-05-07T13:40:26;19.10;99.90
54260;DHT22;40172;53.022;7.012;2023-05-07T13:42:51;19.10;99.90
54260;DHT22;40172;53.022;7.012;2023-05-07T13:45:18;19.10;99.90
54260;DHT22;40172;53.022;7.012;2023-05-07T13:47:44;19.00;99.90
54260;DHT22;40172;53.022;7.012;2023-05-07T13:50:11;19.10;99.90
54260;DHT22;40172;53.022;7.012;2023-05-07T13:52:37;19.10;99.90
54260;DHT22;40172;53.022;7.012;2023-05-07T13:55:03;19.20;99.90
54260;DHT22;40172;53.022;7.012;2023-05-07T13:57:29;19.20;99.90
54260;DHT22;40172;53.022;7.012;2023-05-07T13:59:55;19.30;99.90
54260;DHT22;40172;53.022;7.012;2023-05-07T14:02:20;19.30;99.90
54260;DHT22;40172;53.022;7.012;2023-05-07T14:04:46;19.40;99.90
54260;DHT22;40172;53.022;7.012;2023-05-07T14:07:12;19.50;99.90
54260;DHT22;40172;53.022;7.012;2023-05-07T14:09:37;19.50;99.90
54260;DHT22;40172;53.022;7.012;2023-05-07T14:12:03;19.50;99.90
54260;DHT22;40172;53.022;7.012;2023-05-07T14:14:29;19.50;99.90
54260;DHT22;40172;53.022;7.012;2023-05-07T14:16:54;19.40;99.90
54260;DHT22;40172;53.022;7.012;2023-05-07T14:19:20;19.40;99.90
54260;DHT22;40172;53.022;7.012;2023-05-07T14:21:48;19.50;99.90
54260;DHT22;40172;53.022;7.012;2023-05-07T14:24:13;19.50;99.90
54260;DHT22;40172;53.022;7.012;2023-05-07T14:26:39;19.50;99.90
54260;DHT22;40172;53.022;7.012;2023-05-07T14:29:04;19.60;99.90
54260;DHT22;40172;53.022;7.012;2023-05-07T14:31:30;19.60;99.90
54260;DHT22;40172;53.022;7.012;2023-05-07T14:33:56;19.70;99.90
54260;DHT22;40172;53.022;7.012;2023-05-07T14:36:23;19.80;99.90
54260;DHT22;40172;53.022;7.012;2023-05-07T14:38:52;19.80;99.90
54260;DHT22;40172;53.022;7.012;2023-05-07T14:41:18;19.80;99.90
54260;DHT22;40172;53.022;7.012;2023-05-07T14:43:43;19.90;99.90
54260;DHT22;40172;53.022;7.012;2023-05-07T14:46:18;20.00;99.90
54260;DHT22;40172;53.022;7.012;2023-05-07T14:48:44;20.10;99.90
54260;DHT22;40172;53.022;7.012;2023-05-07T14:51:10;20.20;99.90
54260;DHT22;40172;53.022;7.012;2023-05-07T14:53:36;20.20;99.90
54260;DHT22;40172;53.022;7.012;2023-05-07T14:56:02;20.20;99.90
54260;DHT22;40172;53.022;7.012;2023-05-07T14:58:28;19.90;99.90
54260;DHT22;40172;53.022;7.012;2023-05-07T15:00:54;19.80;99.90
54260;DHT22;40172;53.022;7.012;2023-05-07T15:03:20;19.50;99.90
54260;DHT22;40172;53.022;7.012;2023-05-07T15:05:45;19.40;99.90
54260;DHT22;40172;53.022;7.012;2023-05-07T15:08:11;19.30;99.90
54260;DHT22;40172;53.022;7.012;2023-05-07T15:10:37;19.20;99.90
54260;DHT22;40172;53.022;7.012;2023-05-07T15:13:07;19.10;99.90
54260;DHT22;40172;53.022;7.012;2023-05-07T15:15:36;19.10;99.90
54260;DHT22;40172;53.022;7.012;2023-05-07T15:18:02;19.10;99.90
54260;DHT22;40172;53.022;7.012;2023-05-07T15:20:28;19.10;99.90
54260;DHT22;40172;53.022;7.012;2023-05-07T15:22:54;19.00;99.90
54260;DHT22;40172;53.022;7.012;2023-05-07T15:25:21;18.90;99.90
54260;DHT22;40172;53.022;7.012;2023-05-07T15:27:47;18.90;99.90
54260;DHT22;40172;53.022;7.012;2023-05-07T15:30:13;18.80;99.90
54260;DHT22;40172;53.022;7.012;2023-05-07T15:32:40;18.70;99.90
54260;DHT22;40172;53.022;7.012;2023-05-07T15:35:06;18.60;99.90
54260;DHT22;40172;53.022;7.012;2023-05-07T15:37:32;18.50;99.90
54260;DHT22;40172;53.022;7.012;2023-05-07T15:39:57;18.50;99.90
54260;DHT22;40172;53.022;7.012;2023-05-07T15:42:23;18.40;99.90
54260;DHT22;40172;53.022;7.012;2023-05-07T15:44:49;18.40;99.90